sensor_id;sensor_type;location;lat;lon;timestamp;P1;durP1;ratioP1;P2;durP2;ratioP2
21862;SDS011;11096;51.338;12.524;2024-03-08T00:02:11;41.70;;;22.65;;
21862;SDS011;11096;51.338;12.524;2024-03-08T00:04:38;49.25;;;23.98;;
21862;SDS011;11096;51.338;12.524;2024-03-08T00:07:03;42.13;;;22.10;;
21862;SDS011;11096;51.338;12.524;2024-03-08T00:09:28;40.00;;;22.38;;
21862;SDS011;11096;51.338;12.524;2024-03-08T00:11:55;44.28;;;22.13;;
21862;SDS011;11096;51.338;12.524;2024-03-08T00:14:20;42.78;;;22.05;;
21862;SDS011;11096;51.338;12.524;2024-03-08T00:16:46;43.35;;;22.80;;
21862;SDS011;11096;51.338;12.524;2024-03-08T00:19:12;48.35;;;23.23;;
21862;SDS011;11096;51.338;12.524;2024-03-08T00:21:37;44.63;;;23.08;;
21862;SDS011;11096;51.338;12.524;2024-03-08T00:24:02;43.50;;;24.42;;
21862;SDS011;11096;51.338;12.524;2024-03-08T00:26:27;43.55;;;23.02;;
21862;SDS011;11096;51.338;12.524;2024-03-08T00:28:54;42.97;;;24.63;;
21862;SDS011;11096;51.338;12.524;2024-03-08T00:31:20;46.15;;;24.00;;
21862;SDS011;11096;51.338;12.524;2024-03-08T00:33:45;45.90;;;23.25;;
21862;SDS011;11096;51.338;12.524;2024-03-08T00:36:10;43.78;;;23.05;;
21862;SDS011;11096;51.338;12.524;2024-03-08T00:38:35;44.70;;;23.90;;
21862;SDS011;11096;51.338;12.524;2024-03-08T00:41:01;41.55;;;23.65;;
21862;SDS011;11096;51.338;12.524;2024-03-08T00:43:27;48.97;;;24.05;;
21862;SDS011;11096;51.338;12.524;2024-03-08T00:45:52;44.45;;;23.85;;
21862;SDS011;11096;51.338;12.524;2024-03-08T00:48:17;45.45;;;22.88;;
21862;SDS011;11096;51.338;12.524;2024-03-08T00:50:42;44.42;;;22.70;;
21862;SDS011;11096;51.338;12.524;2024-03-08T00:53:10;44.47;;;22.75;;
21862;SDS011;11096;51.338;12.524;2024-03-08T00:55:36;45.13;;;22.45;;
21862;SDS011;11096;51.338;12.524;2024-03-08T00:58:01;41.15;;;22.73;;
21862;SDS011;11096;51.338;12.524;2024-03-08T01:00:26;44.97;;;22.90;;
21862;SDS011;11096;51.338;12.524;2024-03-08T01:02:52;46.75;;;23.35;;
21862;SDS011;11096;51.338;12.524;2024-03-08T01:05:18;48.83;;;22.67;;
21862;SDS011;11096;51.338;12.524;2024-03-08T01:07:44;47.08;;;23.40;;
21862;SDS011;11096;51.338;12.524;2024-03-08T01:10:11;45.10;;;22.00;;
21862;SDS011;11096;51.338;12.524;2024-03-08T01:12:37;43.67;;;23.52;;
21862;SDS011;11096;51.338;12.524;2024-03-08T01:15:02;44.85;;;22.88;;
21862;SDS011;11096;51.338;12.524;2024-03-08T01:17:28;44.72;;;23.02;;
21862;SDS011;11096;51.338;12.524;2024-03-08T01:19:53;41.97;;;23.13;;
21862;SDS011;11096;51.338;12.524;2024-03-08T01:22:19;43.35;;;24.15;;
21862;SDS011;11096;51.338;12.524;2024-03-08T01:24:44;39.05;;;21.55;;
21862;SDS011;11096;51.338;12.524;2024-03-08T01:27:09;42.80;;;22.95;;
21862;SDS011;11096;51.338;12.524;2024-03-08T01:29:34;40.60;;;22.17;;
21862;SDS011;11096;51.338;12.524;2024-03-08T01:31:59;43.10;;;22.45;;
21862;SDS011;11096;51.338;12.524;2024-03-08T01:34:26;42.92;;;23.63;;
21862;SDS011;11096;51.338;12.524;2024-03-08T01:36:53;44.72;;;22.80;;
21862;SDS011;11096;51.338;12.524;2024-03-08T01:39:20;40.13;;;22.63;;
21862;SDS011;11096;51.338;12.524;2024-03-08T01:41:47;42.03;;;22.27;;
21862;SDS011;11096;51.338;12.524;2024-03-08T01:44:12;47.40;;;22.35;;
21862;SDS011;11096;51.338;12.524;2024-03-08T01:46:40;46.78;;;23.02;;
21862;SDS011;11096;51.338;12.524;2024-03-08T01:49:06;43.55;;;23.13;;
21862;SDS011;11096;51.338;12.524;2024-03-08T01:51:31;39.10;;;20.90;;
21862;SDS011;11096;51.338;12.524;2024-03-08T01:53:57;41.25;;;21.65;;
21862;SDS011;11096;51.338;12.524;2024-03-08T01:56:25;47.40;;;22.60;;
21862;SDS011;11096;51.338;12.524;2024-03-08T01:58:50;43.42;;;22.33;;
21862;SDS011;11096;51.338;12.524;2024-03-08T02:01:16;43.92;;;22.52;;
21862;SDS011;11096;51.338;12.524;2024-03-08T02:03:41;46.80;;;23.92;;
21862;SDS011;11096;51.338;12.524;2024-03-08T02:06:08;43.53;;;22.38;;
21862;SDS011;11096;51.338;12.524;2024-03-08T02:08:35;49.90;;;22.52;;
21862;SDS011;11096;51.338;12.524;2024-03-08T02:11:00;43.38;;;24.15;;
21862;SDS011;11096;51.338;12.524;2024-03-08T02:13:27;46.03;;;22.48;;
21862;SDS011;11096;51.338;12.524;2024-03-08T02:15:53;47.78;;;23.38;;
21862;SDS011;11096;51.338;12.524;2024-03-08T02:18:19;45.38;;;22.95;;
21862;SDS011;11096;51.338;12.524;2024-03-08T02:20:46;41.22;;;22.10;;
21862;SDS011;11096;51.338;12.524;2024-03-08T02:23:12;45.85;;;24.10;;
21862;SDS011;11096;51.338;12.524;2024-03-08T02:25:38;45.58;;;23.27;;
21862;SDS011;11096;51.338;12.524;2024-03-08T02:28:04;45.88;;;21.85;;
21862;SDS011;11096;51.338;12.524;2024-03-08T02:30:29;45.10;;;22.42;;
21862;SDS011;11096;51.338;12.524;2024-03-08T02:32:55;44.45;;;23.63;;
21862;SDS011;11096;51.338;12.524;2024-03-08T02:35:20;43.90;;;22.70;;
21862;SDS011;11096;51.338;12.524;2024-03-08T02:37:45;47.97;;;23.50;;
21862;SDS011;11096;51.338;12.524;2024-03-08T02:40:12;45.65;;;23.17;;
21862;SDS011;11096;51.338;12.524;2024-03-08T02:42:38;48.35;;;22.73;;
21862;SDS011;11096;51.338;12.524;2024-03-08T02:45:03;45.13;;;22.02;;
21862;SDS011;11096;51.338;12.524;2024-03-08T02:47:30;41.78;;;21.20;;
21862;SDS011;11096;51.338;12.524;2024-03-08T02:49:56;46.85;;;22.67;;
21862;SDS011;11096;51.338;12.524;2024-03-08T02:52:21;45.92;;;22.45;;
21862;SDS011;11096;51.338;12.524;2024-03-08T02:54:47;43.25;;;21.83;;
21862;SDS011;11096;51.338;12.524;2024-03-08T02:57:12;42.25;;;20.75;;
21862;SDS011;11096;51.338;12.524;2024-03-08T02:59:39;45.20;;;22.10;;
21862;SDS011;11096;51.338;12.524;2024-03-08T03:02:05;47.40;;;23.30;;
21862;SDS011;11096;51.338;12.524;2024-03-08T03:04:31;42.03;;;21.85;;
21862;SDS011;11096;51.338;12.524;2024-03-08T03:06:56;47.42;;;23.50;;
21862;SDS011;11096;51.338;12.524;2024-03-08T03:09:23;47.08;;;22.92;;
21862;SDS011;11096;51.338;12.524;2024-03-08T03:11:52;45.63;;;22.63;;
21862;SDS011;11096;51.338;12.524;2024-03-08T03:14:17;43.08;;;22.00;;
21862;SDS011;11096;51.338;12.524;2024-03-08T03:16:44;43.03;;;22.20;;
21862;SDS011;11096;51.338;12.524;2024-03-08T03:19:09;47.55;;;23.63;;
21862;SDS011;11096;51.338;12.524;2024-03-08T03:21:34;42.47;;;21.25;;
21862;SDS011;11096;51.338;12.524;2024-03-08T03:24:01;46.80;;;22.73;;
21862;SDS011;11096;51.338;12.524;2024-03-08T03:26:26;46.20;;;21.75;;
21862;SDS011;11096;51.338;12.524;2024-03-08T03:28:51;44.47;;;21.98;;
21862;SDS011;11096;51.338;12.524;2024-03-08T03:31:16;44.53;;;22.10;;
21862;SDS011;11096;51.338;12.524;2024-03-08T03:33:43;44.08;;;22.40;;
21862;SDS011;11096;51.338;12.524;2024-03-08T03:36:08;43.90;;;22.48;;
21862;SDS011;11096;51.338;12.524;2024-03-08T03:38:35;41.95;;;22.17;;
21862;SDS011;11096;51.338;12.524;2024-03-08T03:41:00;50.08;;;22.80;;
21862;SDS011;11096;51.338;12.524;2024-03-08T03:43:34;46.28;;;23.70;;
21862;SDS011;11096;51.338;12.524;2024-03-08T03:46:00;41.78;;;21.42;;
21862;SDS011;11096;51.338;12.524;2024-03-08T03:48:25;44.50;;;22.48;;
21862;SDS011;11096;51.338;12.524;2024-03-08T03:50:51;45.63;;;22.10;;
21862;SDS011;11096;51.338;12.524;2024-03-08T03:53:16;47.17;;;23.13;;
21862;SDS011;11096;51.338;12.524;2024-03-08T03:55:41;45.10;;;22.65;;
21862;SDS011;11096;51.338;12.524;2024-03-08T03:58:06;45.05;;;21.65;;
21862;SDS011;11096;51.338;12.524;2024-03-08T04:00:32;46.03;;;22.88;;
21862;SDS011;11096;51.338;12.524;2024-03-08T04:02:57;42.83;;;21.33;;
21862;SDS011;11096;51.338;12.524;2024-03-08T04:05:25;48.30;;;22.38;;
21862;SDS011;11096;51.338;12.524;2024-03-08T04:07:51;47.50;;;22.42;;
21862;SDS011;11096;51.338;12.524;2024-03-08T04:10:16;41.75;;;22.42;;
21862;SDS011;11096;51.338;12.524;2024-03-08T04:12:41;45.58;;;21.90;;
21862;SDS011;11096;51.338;12.524;2024-03-08T04:15:06;48.45;;;22.77;;
21862;SDS011;11096;51.338;12.524;2024-03-08T04:17:32;42.03;;;22.38;;
21862;SDS011;11096;51.338;12.524;2024-03-08T04:19:57;45.10;;;21.98;;
21862;SDS011;11096;51.338;12.524;2024-03-08T04:22:23;45.22;;;22.17;;
21862;SDS011;11096;51.338;12.524;2024-03-08T04:24:48;43.30;;;21.73;;
21862;SDS011;11096;51.338;12.524;2024-03-08T04:27:13;40.63;;;20.58;;
21862;SDS011;11096;51.338;12.524;2024-03-08T04:29:39;44.60;;;21.92;;
21862;SDS011;11096;51.338;12.524;2024-03-08T04:32:05;47.15;;;21.13;;
21862;SDS011;11096;51.338;12.524;2024-03-08T04:34:31;41.55;;;21.35;;
21862;SDS011;11096;51.338;12.524;2024-03-08T04:36:57;45.97;;;23.83;;
21862;SDS011;11096;51.338;12.524;2024-03-08T04:39:22;51.90;;;23.30;;
21862;SDS011;11096;51.338;12.524;2024-03-08T04:41:48;45.22;;;22.20;;
21862;SDS011;11096;51.338;12.524;2024-03-08T04:44:14;49.63;;;23.63;;
21862;SDS011;11096;51.338;12.524;2024-03-08T04:46:39;44.05;;;23.35;;
21862;SDS011;11096;51.338;12.524;2024-03-08T04:49:04;43.13;;;21.75;;
21862;SDS011;11096;51.338;12.524;2024-03-08T04:51:30;48.38;;;23.17;;
21862;SDS011;11096;51.338;12.524;2024-03-08T04:53:55;47.90;;;22.42;;
21862;SDS011;11096;51.338;12.524;2024-03-08T04:56:22;46.72;;;24.00;;
21862;SDS011;11096;51.338;12.524;2024-03-08T04:58:47;49.97;;;23.63;;
21862;SDS011;11096;51.338;12.524;2024-03-08T05:01:12;45.03;;;23.23;;
21862;SDS011;11096;51.338;12.524;2024-03-08T05:03:38;46.70;;;23.85;;
21862;SDS011;11096;51.338;12.524;2024-03-08T05:06:03;42.88;;;22.52;;
21862;SDS011;11096;51.338;12.524;2024-03-08T05:08:29;48.78;;;23.27;;
21862;SDS011;11096;51.338;12.524;2024-03-08T05:10:54;49.22;;;23.23;;
21862;SDS011;11096;51.338;12.524;2024-03-08T05:13:19;48.42;;;23.40;;
21862;SDS011;11096;51.338;12.524;2024-03-08T05:15:47;47.67;;;23.33;;
21862;SDS011;11096;51.338;12.524;2024-03-08T05:18:12;49.97;;;22.33;;
21862;SDS011;11096;51.338;12.524;2024-03-08T05:20:39;45.28;;;22.77;;
21862;SDS011;11096;51.338;12.524;2024-03-08T05:23:06;45.75;;;23.13;;
21862;SDS011;11096;51.338;12.524;2024-03-08T05:25:31;48.47;;;24.33;;
21862;SDS011;11096;51.338;12.524;2024-03-08T05:27:57;45.33;;;23.23;;
21862;SDS011;11096;51.338;12.524;2024-03-08T05:30:23;52.65;;;24.23;;
21862;SDS011;11096;51.338;12.524;2024-03-08T05:32:48;49.72;;;25.23;;
21862;SDS011;11096;51.338;12.524;2024-03-08T05:35:13;57.60;;;26.67;;
21862;SDS011;11096;51.338;12.524;2024-03-08T05:37:41;50.28;;;25.13;;
21862;SDS011;11096;51.338;12.524;2024-03-08T05:40:07;54.05;;;25.30;;
21862;SDS011;11096;51.338;12.524;2024-03-08T05:42:37;51.80;;;25.23;;
21862;SDS011;11096;51.338;12.524;2024-03-08T05:45:03;49.70;;;24.30;;
21862;SDS011;11096;51.338;12.524;2024-03-08T05:47:28;48.60;;;23.60;;
21862;SDS011;11096;51.338;12.524;2024-03-08T05:49:54;50.47;;;24.35;;
21862;SDS011;11096;51.338;12.524;2024-03-08T05:52:19;45.72;;;23.83;;
21862;SDS011;11096;51.338;12.524;2024-03-08T05:54:44;53.28;;;23.88;;
21862;SDS011;11096;51.338;12.524;2024-03-08T05:57:10;51.30;;;24.80;;
21862;SDS011;11096;51.338;12.524;2024-03-08T05:59:36;52.00;;;25.38;;
21862;SDS011;11096;51.338;12.524;2024-03-08T06:02:01;54.15;;;25.25;;
21862;SDS011;11096;51.338;12.524;2024-03-08T06:04:27;48.92;;;26.13;;
21862;SDS011;11096;51.338;12.524;2024-03-08T06:06:52;57.03;;;26.13;;
21862;SDS011;11096;51.338;12.524;2024-03-08T06:09:20;54.80;;;26.73;;
21862;SDS011;11096;51.338;12.524;2024-03-08T06:11:48;52.63;;;25.27;;
21862;SDS011;11096;51.338;12.524;2024-03-08T06:14:13;52.80;;;25.90;;
21862;SDS011;11096;51.338;12.524;2024-03-08T06:16:40;56.75;;;26.83;;
21862;SDS011;11096;51.338;12.524;2024-03-08T06:19:05;53.58;;;26.73;;
21862;SDS011;11096;51.338;12.524;2024-03-08T06:21:31;56.67;;;26.27;;
21862;SDS011;11096;51.338;12.524;2024-03-08T06:23:57;52.50;;;27.17;;
21862;SDS011;11096;51.338;12.524;2024-03-08T06:26:22;58.90;;;27.60;;
21862;SDS011;11096;51.338;12.524;2024-03-08T06:28:48;51.90;;;26.75;;
21862;SDS011;11096;51.338;12.524;2024-03-08T06:31:13;53.55;;;26.30;;
21862;SDS011;11096;51.338;12.524;2024-03-08T06:33:39;49.17;;;25.63;;
21862;SDS011;11096;51.338;12.524;2024-03-08T06:36:05;54.80;;;26.42;;
21862;SDS011;11096;51.338;12.524;2024-03-08T06:38:30;49.50;;;25.77;;
21862;SDS011;11096;51.338;12.524;2024-03-08T06:40:55;55.92;;;26.50;;
21862;SDS011;11096;51.338;12.524;2024-03-08T06:43:21;54.30;;;27.27;;
21862;SDS011;11096;51.338;12.524;2024-03-08T06:45:46;49.92;;;26.80;;
21862;SDS011;11096;51.338;12.524;2024-03-08T06:48:16;52.08;;;26.33;;
21862;SDS011;11096;51.338;12.524;2024-03-08T06:50:42;54.35;;;27.25;;
21862;SDS011;11096;51.338;12.524;2024-03-08T06:53:08;52.28;;;27.00;;
21862;SDS011;11096;51.338;12.524;2024-03-08T06:55:33;52.47;;;27.00;;
21862;SDS011;11096;51.338;12.524;2024-03-08T06:57:59;51.63;;;25.60;;
21862;SDS011;11096;51.338;12.524;2024-03-08T07:00:24;50.78;;;26.20;;
21862;SDS011;11096;51.338;12.524;2024-03-08T07:02:52;49.33;;;26.30;;
21862;SDS011;11096;51.338;12.524;2024-03-08T07:05:18;53.17;;;26.15;;
21862;SDS011;11096;51.338;12.524;2024-03-08T07:07:44;54.03;;;26.83;;
21862;SDS011;11096;51.338;12.524;2024-03-08T07:10:09;47.22;;;24.83;;
21862;SDS011;11096;51.338;12.524;2024-03-08T07:12:40;49.80;;;25.42;;
21862;SDS011;11096;51.338;12.524;2024-03-08T07:15:05;49.50;;;25.75;;
21862;SDS011;11096;51.338;12.524;2024-03-08T07:17:31;49.72;;;25.45;;
21862;SDS011;11096;51.338;12.524;2024-03-08T07:19:59;54.45;;;24.45;;
21862;SDS011;11096;51.338;12.524;2024-03-08T07:22:24;47.33;;;25.20;;
21862;SDS011;11096;51.338;12.524;2024-03-08T07:24:49;46.03;;;25.10;;
21862;SDS011;11096;51.338;12.524;2024-03-08T07:27:35;44.67;;;25.08;;
21862;SDS011;11096;51.338;12.524;2024-03-08T07:30:01;48.10;;;25.75;;
21862;SDS011;11096;51.338;12.524;2024-03-08T07:32:27;51.20;;;24.98;;
21862;SDS011;11096;51.338;12.524;2024-03-08T07:34:54;48.47;;;24.92;;
21862;SDS011;11096;51.338;12.524;2024-03-08T07:37:20;50.25;;;24.80;;
21862;SDS011;11096;51.338;12.524;2024-03-08T07:39:45;48.13;;;25.85;;
21862;SDS011;11096;51.338;12.524;2024-03-08T07:42:11;43.45;;;24.92;;
21862;SDS011;11096;51.338;12.524;2024-03-08T07:44:36;45.67;;;24.95;;
21862;SDS011;11096;51.338;12.524;2024-03-08T07:47:02;49.42;;;26.08;;
21862;SDS011;11096;51.338;12.524;2024-03-08T07:49:28;48.80;;;25.55;;
21862;SDS011;11096;51.338;12.524;2024-03-08T07:51:53;45.72;;;24.38;;
21862;SDS011;11096;51.338;12.524;2024-03-08T07:54:19;48.58;;;25.65;;
21862;SDS011;11096;51.338;12.524;2024-03-08T07:56:45;47.15;;;26.35;;
21862;SDS011;11096;51.338;12.524;2024-03-08T07:59:10;47.08;;;25.13;;
21862;SDS011;11096;51.338;12.524;2024-03-08T08:01:37;45.63;;;23.77;;
21862;SDS011;11096;51.338;12.524;2024-03-08T08:04:02;48.40;;;25.25;;
21862;SDS011;11096;51.338;12.524;2024-03-08T08:06:27;41.72;;;23.30;;
21862;SDS011;11096;51.338;12.524;2024-03-08T08:08:53;46.80;;;24.52;;
21862;SDS011;11096;51.338;12.524;2024-03-08T08:11:18;44.65;;;25.17;;
21862;SDS011;11096;51.338;12.524;2024-03-08T08:13:45;50.22;;;24.80;;
21862;SDS011;11096;51.338;12.524;2024-03-08T08:16:10;44.55;;;24.40;;
21862;SDS011;11096;51.338;12.524;2024-03-08T08:18:35;45.22;;;24.23;;
21862;SDS011;11096;51.338;12.524;2024-03-08T08:21:01;40.83;;;23.63;;
21862;SDS011;11096;51.338;12.524;2024-03-08T08:23:27;48.47;;;24.35;;
21862;SDS011;11096;51.338;12.524;2024-03-08T08:25:52;43.67;;;24.45;;
21862;SDS011;11096;51.338;12.524;2024-03-08T08:28:18;45.33;;;25.52;;
21862;SDS011;11096;51.338;12.524;2024-03-08T08:30:44;39.88;;;23.77;;
21862;SDS011;11096;51.338;12.524;2024-03-08T08:33:09;48.75;;;24.75;;
21862;SDS011;11096;51.338;12.524;2024-03-08T08:35:35;45.60;;;24.23;;
21862;SDS011;11096;51.338;12.524;2024-03-08T08:38:01;43.63;;;24.75;;
21862;SDS011;11096;51.338;12.524;2024-03-08T08:40:28;43.20;;;23.58;;
21862;SDS011;11096;51.338;12.524;2024-03-08T08:42:55;41.38;;;23.23;;
21862;SDS011;11096;51.338;12.524;2024-03-08T08:45:22;45.97;;;24.75;;
21862;SDS011;11096;51.338;12.524;2024-03-08T08:47:48;39.85;;;23.48;;
21862;SDS011;11096;51.338;12.524;2024-03-08T08:50:14;42.35;;;24.38;;
21862;SDS011;11096;51.338;12.524;2024-03-08T08:52:41;43.25;;;23.50;;
21862;SDS011;11096;51.338;12.524;2024-03-08T08:55:08;44.10;;;24.48;;
21862;SDS011;11096;51.338;12.524;2024-03-08T08:57:34;41.35;;;22.75;;
21862;SDS011;11096;51.338;12.524;2024-03-08T09:00:00;41.92;;;24.73;;
21862;SDS011;11096;51.338;12.524;2024-03-08T09:02:26;40.63;;;24.48;;
21862;SDS011;11096;51.338;12.524;2024-03-08T09:04:51;36.95;;;22.52;;
21862;SDS011;11096;51.338;12.524;2024-03-08T09:07:16;43.38;;;23.80;;
21862;SDS011;11096;51.338;12.524;2024-03-08T09:09:43;44.47;;;24.55;;
21862;SDS011;11096;51.338;12.524;2024-03-08T09:12:09;42.20;;;24.85;;
21862;SDS011;11096;51.338;12.524;2024-03-08T09:14:38;36.80;;;22.95;;
21862;SDS011;11096;51.338;12.524;2024-03-08T09:17:03;43.47;;;25.40;;
21862;SDS011;11096;51.338;12.524;2024-03-08T09:19:29;40.08;;;23.58;;
21862;SDS011;11096;51.338;12.524;2024-03-08T09:21:54;38.80;;;23.83;;
21862;SDS011;11096;51.338;12.524;2024-03-08T09:24:19;42.45;;;23.08;;
21862;SDS011;11096;51.338;12.524;2024-03-08T09:26:45;42.28;;;23.00;;
21862;SDS011;11096;51.338;12.524;2024-03-08T09:29:11;40.17;;;22.67;;
21862;SDS011;11096;51.338;12.524;2024-03-08T09:31:36;36.63;;;23.95;;
21862;SDS011;11096;51.338;12.524;2024-03-08T09:34:03;38.78;;;24.25;;
21862;SDS011;11096;51.338;12.524;2024-03-08T09:36:28;41.42;;;24.30;;
21862;SDS011;11096;51.338;12.524;2024-03-08T09:38:53;36.90;;;22.05;;
21862;SDS011;11096;51.338;12.524;2024-03-08T09:41:19;39.08;;;23.85;;
21862;SDS011;11096;51.338;12.524;2024-03-08T09:43:44;40.28;;;24.58;;
21862;SDS011;11096;51.338;12.524;2024-03-08T09:46:10;38.42;;;23.77;;
21862;SDS011;11096;51.338;12.524;2024-03-08T09:48:36;41.47;;;22.17;;
21862;SDS011;11096;51.338;12.524;2024-03-08T09:51:02;38.58;;;23.92;;
21862;SDS011;11096;51.338;12.524;2024-03-08T09:53:28;34.35;;;21.58;;
21862;SDS011;11096;51.338;12.524;2024-03-08T09:55:53;34.92;;;21.95;;
21862;SDS011;11096;51.338;12.524;2024-03-08T09:58:18;32.72;;;21.33;;
21862;SDS011;11096;51.338;12.524;2024-03-08T10:01:07;34.90;;;22.27;;
21862;SDS011;11096;51.338;12.524;2024-03-08T10:03:32;33.05;;;21.35;;
21862;SDS011;11096;51.338;12.524;2024-03-08T10:05:58;34.47;;;22.88;;
21862;SDS011;11096;51.338;12.524;2024-03-08T10:08:29;33.65;;;21.63;;
21862;SDS011;11096;51.338;12.524;2024-03-08T10:10:54;34.20;;;22.83;;
21862;SDS011;11096;51.338;12.524;2024-03-08T10:13:20;36.35;;;23.23;;
21862;SDS011;11096;51.338;12.524;2024-03-08T10:15:45;33.97;;;24.13;;
21862;SDS011;11096;51.338;12.524;2024-03-08T10:18:11;35.22;;;24.02;;
21862;SDS011;11096;51.338;12.524;2024-03-08T10:20:36;32.72;;;23.58;;
21862;SDS011;11096;51.338;12.524;2024-03-08T10:23:02;28.17;;;21.27;;
21862;SDS011;11096;51.338;12.524;2024-03-08T10:25:28;32.17;;;23.60;;
21862;SDS011;11096;51.338;12.524;2024-03-08T10:27:55;35.67;;;23.83;;
21862;SDS011;11096;51.338;12.524;2024-03-08T10:30:20;34.38;;;22.13;;
21862;SDS011;11096;51.338;12.524;2024-03-08T10:32:46;34.10;;;22.95;;
21862;SDS011;11096;51.338;12.524;2024-03-08T10:35:12;35.42;;;23.60;;
21862;SDS011;11096;51.338;12.524;2024-03-08T10:37:47;30.95;;;21.00;;
21862;SDS011;11096;51.338;12.524;2024-03-08T10:40:15;30.67;;;20.05;;
21862;SDS011;11096;51.338;12.524;2024-03-08T10:42:47;30.42;;;21.23;;
21862;SDS011;11096;51.338;12.524;2024-03-08T10:45:19;30.92;;;21.42;;
21862;SDS011;11096;51.338;12.524;2024-03-08T10:47:48;31.10;;;21.35;;
21862;SDS011;11096;51.338;12.524;2024-03-08T10:50:20;32.63;;;20.55;;
21862;SDS011;11096;51.338;12.524;2024-03-08T10:52:50;36.95;;;23.92;;
21862;SDS011;11096;51.338;12.524;2024-03-08T10:55:17;33.28;;;22.20;;
21862;SDS011;11096;51.338;12.524;2024-03-08T10:57:42;30.67;;;21.33;;
21862;SDS011;11096;51.338;12.524;2024-03-08T11:00:08;29.50;;;21.55;;
21862;SDS011;11096;51.338;12.524;2024-03-08T11:02:37;33.20;;;22.13;;
21862;SDS011;11096;51.338;12.524;2024-03-08T11:05:05;30.05;;;22.42;;
21862;SDS011;11096;51.338;12.524;2024-03-08T11:07:34;30.55;;;21.67;;
21862;SDS011;11096;51.338;12.524;2024-03-08T11:10:03;34.58;;;21.90;;
21862;SDS011;11096;51.338;12.524;2024-03-08T11:12:36;27.33;;;19.27;;
21862;SDS011;11096;51.338;12.524;2024-03-08T11:15:03;29.00;;;20.20;;
21862;SDS011;11096;51.338;12.524;2024-03-08T11:20:10;27.77;;;19.95;;
21862;SDS011;11096;51.338;12.524;2024-03-08T11:22:50;26.65;;;19.10;;
21862;SDS011;11096;51.338;12.524;2024-03-08T11:25:40;26.75;;;18.25;;
21862;SDS011;11096;51.338;12.524;2024-03-08T11:28:21;27.60;;;18.25;;
21862;SDS011;11096;51.338;12.524;2024-03-08T11:33:13;26.30;;;18.15;;
21862;SDS011;11096;51.338;12.524;2024-03-08T11:35:39;26.48;;;18.48;;
21862;SDS011;11096;51.338;12.524;2024-03-08T11:38:07;29.08;;;19.55;;
21862;SDS011;11096;51.338;12.524;2024-03-08T11:40:32;25.75;;;17.73;;
21862;SDS011;11096;51.338;12.524;2024-03-08T11:42:58;25.80;;;17.48;;
21862;SDS011;11096;51.338;12.524;2024-03-08T11:45:24;25.23;;;17.15;;
21862;SDS011;11096;51.338;12.524;2024-03-08T11:47:50;25.38;;;17.45;;
21862;SDS011;11096;51.338;12.524;2024-03-08T11:50:15;27.55;;;19.90;;
21862;SDS011;11096;51.338;12.524;2024-03-08T11:52:41;27.48;;;20.70;;
21862;SDS011;11096;51.338;12.524;2024-03-08T11:55:07;31.05;;;19.60;;
21862;SDS011;11096;51.338;12.524;2024-03-08T11:57:33;29.77;;;20.20;;
21862;SDS011;11096;51.338;12.524;2024-03-08T11:59:59;25.52;;;18.73;;
21862;SDS011;11096;51.338;12.524;2024-03-08T12:02:32;24.02;;;17.70;;
21862;SDS011;11096;51.338;12.524;2024-03-08T12:05:00;26.45;;;18.27;;
21862;SDS011;11096;51.338;12.524;2024-03-08T12:07:28;29.88;;;19.00;;
21862;SDS011;11096;51.338;12.524;2024-03-08T12:10:14;27.05;;;19.27;;
21862;SDS011;11096;51.338;12.524;2024-03-08T12:12:42;37.13;;;22.38;;
21862;SDS011;11096;51.338;12.524;2024-03-08T12:15:07;27.20;;;20.27;;
21862;SDS011;11096;51.338;12.524;2024-03-08T12:17:33;33.72;;;21.05;;
21862;SDS011;11096;51.338;12.524;2024-03-08T12:20:10;28.13;;;20.40;;
21862;SDS011;11096;51.338;12.524;2024-03-08T12:22:40;26.40;;;20.13;;
21862;SDS011;11096;51.338;12.524;2024-03-08T12:25:06;26.05;;;20.63;;
21862;SDS011;11096;51.338;12.524;2024-03-08T12:27:35;30.13;;;22.38;;
21862;SDS011;11096;51.338;12.524;2024-03-08T12:30:14;25.08;;;19.48;;
21862;SDS011;11096;51.338;12.524;2024-03-08T12:32:40;27.67;;;19.88;;
21862;SDS011;11096;51.338;12.524;2024-03-08T12:35:07;27.30;;;21.70;;
21862;SDS011;11096;51.338;12.524;2024-03-08T12:37:35;26.05;;;20.05;;
21862;SDS011;11096;51.338;12.524;2024-03-08T12:40:00;28.73;;;20.80;;
21862;SDS011;11096;51.338;12.524;2024-03-08T12:42:25;28.40;;;20.92;;
21862;SDS011;11096;51.338;12.524;2024-03-08T12:44:51;30.53;;;21.53;;
21862;SDS011;11096;51.338;12.524;2024-03-08T12:47:16;27.83;;;21.37;;
21862;SDS011;11096;51.338;12.524;2024-03-08T12:49:41;29.40;;;21.88;;
21862;SDS011;11096;51.338;12.524;2024-03-08T12:52:08;27.80;;;21.17;;
21862;SDS011;11096;51.338;12.524;2024-03-08T12:54:34;28.70;;;21.10;;
21862;SDS011;11096;51.338;12.524;2024-03-08T12:56:59;27.75;;;22.30;;
21862;SDS011;11096;51.338;12.524;2024-03-08T12:59:25;32.57;;;23.63;;
21862;SDS011;11096;51.338;12.524;2024-03-08T13:01:50;29.60;;;20.90;;
21862;SDS011;11096;51.338;12.524;2024-03-08T13:04:17;28.15;;;20.23;;
21862;SDS011;11096;51.338;12.524;2024-03-08T13:06:43;28.42;;;21.85;;
21862;SDS011;11096;51.338;12.524;2024-03-08T13:09:11;27.90;;;20.20;;
21862;SDS011;11096;51.338;12.524;2024-03-08T13:11:36;31.38;;;21.95;;
21862;SDS011;11096;51.338;12.524;2024-03-08T13:14:05;28.23;;;21.33;;
21862;SDS011;11096;51.338;12.524;2024-03-08T13:16:33;28.48;;;21.27;;
21862;SDS011;11096;51.338;12.524;2024-03-08T13:18:59;30.67;;;21.42;;
21862;SDS011;11096;51.338;12.524;2024-03-08T13:21:25;32.50;;;21.88;;
21862;SDS011;11096;51.338;12.524;2024-03-08T13:23:50;28.27;;;21.73;;
21862;SDS011;11096;51.338;12.524;2024-03-08T13:26:18;27.98;;;21.23;;
21862;SDS011;11096;51.338;12.524;2024-03-08T13:31:08;29.77;;;21.40;;
21862;SDS011;11096;51.338;12.524;2024-03-08T13:33:37;28.30;;;21.20;;
21862;SDS011;11096;51.338;12.524;2024-03-08T13:36:04;30.02;;;21.92;;
21862;SDS011;11096;51.338;12.524;2024-03-08T13:38:31;29.67;;;20.85;;
21862;SDS011;11096;51.338;12.524;2024-03-08T13:40:58;29.33;;;21.52;;
21862;SDS011;11096;51.338;12.524;2024-03-08T13:43:23;27.13;;;20.95;;
21862;SDS011;11096;51.338;12.524;2024-03-08T13:45:49;32.38;;;22.33;;
21862;SDS011;11096;51.338;12.524;2024-03-08T13:48:14;28.70;;;21.20;;
21862;SDS011;11096;51.338;12.524;2024-03-08T13:50:40;28.83;;;20.98;;
21862;SDS011;11096;51.338;12.524;2024-03-08T13:53:05;32.30;;;20.60;;
21862;SDS011;11096;51.338;12.524;2024-03-08T13:55:30;30.52;;;22.05;;
21862;SDS011;11096;51.338;12.524;2024-03-08T13:57:56;31.50;;;21.45;;
21862;SDS011;11096;51.338;12.524;2024-03-08T14:00:22;32.85;;;21.77;;
21862;SDS011;11096;51.338;12.524;2024-03-08T14:02:48;30.25;;;20.80;;
21862;SDS011;11096;51.338;12.524;2024-03-08T14:05:13;29.33;;;20.90;;
21862;SDS011;11096;51.338;12.524;2024-03-08T14:07:40;30.40;;;22.30;;
21862;SDS011;11096;51.338;12.524;2024-03-08T14:10:05;31.52;;;22.05;;
21862;SDS011;11096;51.338;12.524;2024-03-08T14:12:32;29.27;;;21.77;;